Sand Hill, Arkansas
Current Conditions -  °F | °C
As of 6:56 AM on Friday 28 Nov 2014 (Local Time) from KSRC Reporting Station
Haze Haze  
Wind Chill: 26°   Ceiling: Unl
Heat Index: 26°   Visibility: 4mi
Dew Point: 25°   Wind: 0mph
Humidity: 96%   Direction: NA
Pressure: 30.39"   Gusts: NA
Location:  34.9712°N, 91.571°W
Report Text: KSRC 281256Z AUTO 00000KT 4SM BR CLR M03/M04 A3039 RMK AO2 SLP299 T10331039 FZRANO TSNO
Loading
Personal Weather Stations






























Interactive Weather Map New forecast layout! Learn more

10-Day Weather Forecast

Advertisements
Track Severe Weather on mobile